Time;durP1;ratioP1;P1;durP2;ratioP2;P2;SDS_P1;SDS_P2;PMS_P1;PMS_P2;Temp;Humidity;BMP_temperature;BMP_pressure;BME280_temperature;BME280_humidity;BME280_pressure;Samples;Min_cycle;Max_cycle;Signal;HPM_P1;HPM_P2
2022/06/04 00:01:00;;;;;;;4.07;2.63;;;17.80;99.90;;;;;;5012876;28;20497;-46
2022/06/04 00:03:28;;;;;;;5.43;3.20;;;17.70;99.90;;;;;;5013165;28;20513;-45
2022/06/04 00:05:57;;;;;;;5.30;3.20;;;17.70;99.90;;;;;;5012741;28;20462;-44
2022/06/04 00:08:24;;;;;;;4.27;2.53;;;17.70;99.90;;;;;;5012574;28;20493;-46
2022/06/04 00:16:27;;;;;;;4.10;2.40;;;17.70;99.90;;;;;;5011747;28;20478;-44
2022/06/04 00:18:55;;;;;;;2.97;2.60;;;17.70;99.90;;;;;;5012343;28;20451;-48
2022/06/04 00:21:22;;;;;;;4.23;2.50;;;17.70;99.90;;;;;;5012340;28;20512;-45
2022/06/04 00:23:50;;;;;;;3.23;2.20;;;17.60;99.90;;;;;;5012853;28;20483;-45
2022/06/04 00:26:18;;;;;;;6.67;2.90;;;17.40;99.90;;;;;;5012654;28;20567;-47
2022/06/04 00:28:46;;;;;;;6.03;2.20;;;17.50;99.90;;;;;;5012359;28;20525;-44
2022/06/04 00:31:14;;;;;;;3.50;2.90;;;17.60;99.90;;;;;;5011977;28;20449;-47
2022/06/04 00:33:41;;;;;;;4.00;2.80;;;17.60;99.90;;;;;;5012459;28;20520;-45
2022/06/04 00:36:08;;;;;;;4.20;2.87;;;17.60;99.90;;;;;;5011895;28;20483;-44
2022/06/04 00:38:35;;;;;;;4.33;2.73;;;17.60;99.90;;;;;;5012328;28;20439;-44
2022/06/04 00:41:12;;;;;;;2.63;2.37;;;17.70;99.90;;;;;;5011966;28;20479;-45
2022/06/04 00:44:03;;;;;;;4.73;2.90;;;17.60;99.90;;;;;;5012119;28;20989;-44
2022/06/04 00:47:12;;;;;;;6.10;2.90;;;17.60;99.90;;;;;;5011808;28;20987;-44
2022/06/04 00:49:39;;;;;;;2.80;2.30;;;17.60;99.90;;;;;;4982958;28;20537;-44
2022/06/04 00:52:11;;;;;;;3.77;2.43;;;17.60;99.90;;;;;;5012380;28;20530;-48
2022/06/04 00:54:38;;;;;;;4.40;3.00;;;17.60;99.90;;;;;;5011732;28;20994;-44
2022/06/04 00:57:29;;;;;;;4.00;2.73;;;17.60;99.90;;;;;;5011659;28;20463;-44
2022/06/04 01:00:05;;;;;;;3.37;2.53;;;17.70;99.90;;;;;;5011628;28;20482;-44
2022/06/04 01:02:45;;;;;;;3.00;2.37;;;17.60;99.90;;;;;;5011785;28;20439;-44
2022/06/04 01:05:24;;;;;;;3.63;2.40;;;17.60;99.90;;;;;;5011632;28;21042;-45
2022/06/04 01:08:19;;;;;;;3.63;2.17;;;17.40;99.90;;;;;;5011896;28;20474;-45
2022/06/04 01:10:56;;;;;;;6.23;2.30;;;17.40;99.90;;;;;;5011706;28;20536;-45
2022/06/04 01:13:35;;;;;;;2.57;2.33;;;17.40;99.90;;;;;;5012001;28;20438;-44
2022/06/04 01:16:10;;;;;;;4.67;2.10;;;17.40;99.90;;;;;;5011438;28;20541;-45
2022/06/04 01:18:44;;;;;;;2.53;2.30;;;17.40;99.90;;;;;;5011470;28;20788;-45
2022/06/04 01:21:19;;;;;;;4.77;2.70;;;17.40;99.90;;;;;;5011588;28;20928;-44
2022/06/04 01:24:11;;;;;;;3.83;2.30;;;17.40;99.90;;;;;;5011607;28;20473;-44
2022/06/04 01:27:15;;;;;;;3.40;2.53;;;17.40;99.90;;;;;;5011583;28;20467;-44
2022/06/04 01:29:58;;;;;;;4.73;1.93;;;17.40;99.90;;;;;;5011677;28;20504;-43
2022/06/04 01:32:30;;;;;;;3.17;2.07;;;17.20;99.90;;;;;;5011443;28;20467;-47
2022/06/04 01:35:08;;;;;;;3.10;2.10;;;17.10;99.90;;;;;;5011134;28;20853;-44
2022/06/04 01:37:39;;;;;;;2.90;2.37;;;17.10;99.90;;;;;;5011521;28;20534;-44
2022/06/04 01:42:57;;;;;;;2.77;2.33;;;17.10;99.90;;;;;;5011577;28;20426;-44
2022/06/04 01:45:27;;;;;;;3.15;2.10;;;17.10;99.90;;;;;;5072952;22;20502;-45
2022/06/04 01:47:57;;;;;;;7.60;2.60;;;17.10;99.90;;;;;;5050457;28;21032;-44
2022/06/04 01:50:29;;;;;;;2.70;1.97;;;17.00;99.90;;;;;;5050571;28;20535;-45
2022/06/04 01:52:59;;;;;;;3.97;2.23;;;17.00;99.90;;;;;;5050843;28;20452;-46
2022/06/04 01:55:32;;;;;;;4.87;2.27;;;16.70;99.90;;;;;;5050724;28;20477;-50
2022/06/04 01:58:04;;;;;;;2.73;1.90;;;16.60;99.90;;;;;;5050671;28;20460;-47
2022/06/04 02:00:35;;;;;;;2.57;2.37;;;16.70;99.90;;;;;;5050517;28;20445;-48
2022/06/04 02:03:08;;;;;;;4.90;2.30;;;16.80;99.90;;;;;;5050869;28;20495;-45
2022/06/04 02:05:40;;;;;;;3.40;2.67;;;16.90;99.90;;;;;;5050707;28;20457;-45
2022/06/04 02:08:09;;;;;;;4.43;2.70;;;17.00;99.90;;;;;;5050599;28;20437;-45
2022/06/04 02:10:41;;;;;;;4.30;2.20;;;17.10;99.90;;;;;;5050395;28;20445;-46
2022/06/04 02:13:13;;;;;;;3.37;1.87;;;17.10;99.90;;;;;;5050590;28;20442;-45
2022/06/04 02:15:52;;;;;;;6.23;2.47;;;17.00;99.90;;;;;;5050631;28;20900;-47
2022/06/04 02:18:19;;;;;;;4.67;2.30;;;17.00;99.90;;;;;;5050667;28;21005;-45
2022/06/04 02:20:46;;;;;;;2.67;2.27;;;16.90;99.90;;;;;;5050289;28;20510;-46
2022/06/04 02:23:13;;;;;;;2.43;1.73;;;16.90;99.90;;;;;;5050642;28;20472;-44
2022/06/04 02:25:40;;;;;;;3.33;1.83;;;16.80;99.90;;;;;;5050108;28;20519;-47
2022/06/04 02:28:10;;;;;;;2.77;1.60;;;16.80;99.90;;;;;;5050998;28;20476;-45
2022/06/04 02:30:48;;;;;;;3.30;1.90;;;16.80;99.90;;;;;;5050018;28;20442;-46
2022/06/04 02:33:23;;;;;;;3.07;2.30;;;16.90;99.90;;;;;;5050483;28;20856;-50
2022/06/04 02:35:57;;;;;;;2.87;1.93;;;16.90;99.90;;;;;;5050500;28;20959;-45
2022/06/04 02:38:29;;;;;;;5.50;2.07;;;16.90;99.90;;;;;;5050574;28;20492;-45
2022/06/04 02:41:02;;;;;;;2.60;1.70;;;16.90;99.90;;;;;;5052967;28;20469;-44
2022/06/04 02:43:41;;;;;;;4.30;2.37;;;16.70;99.90;;;;;;5054031;28;20478;-45
2022/06/04 02:46:17;;;;;;;3.27;1.80;;;16.60;99.90;;;;;;5053806;28;20496;-47
2022/06/04 02:48:50;;;;;;;2.60;2.20;;;16.70;99.90;;;;;;5054153;28;20472;-45
2022/06/04 02:51:22;;;;;;;3.60;2.33;;;16.60;99.90;;;;;;5054092;28;20469;-45
2022/06/04 02:53:50;;;;;;;3.43;2.10;;;16.70;99.90;;;;;;5053938;28;20449;-45
2022/06/04 02:56:21;;;;;;;17.47;3.60;;;16.60;99.90;;;;;;5053638;28;20902;-52
2022/06/04 02:59:05;;;;;;;3.63;2.17;;;16.60;99.90;;;;;;5053809;28;20472;-47
2022/06/04 03:01:38;;;;;;;3.47;2.00;;;16.50;99.90;;;;;;5053902;28;20532;-48
2022/06/04 03:04:05;;;;;;;3.80;1.70;;;16.50;99.90;;;;;;5053810;28;20477;-46
2022/06/04 03:06:33;;;;;;;3.30;1.77;;;16.30;99.90;;;;;;5053380;28;20476;-44
2022/06/04 03:09:03;;;;;;;1.93;1.67;;;16.30;99.90;;;;;;5053209;28;20449;-45
2022/06/04 03:11:30;;;;;;;4.20;1.90;;;16.40;99.90;;;;;;5053534;28;20888;-45
2022/06/04 03:13:58;;;;;;;2.97;1.90;;;16.40;99.90;;;;;;5053623;28;20441;-45
2022/06/04 03:16:35;;;;;;;3.13;2.23;;;16.20;99.90;;;;;;5053239;28;20460;-48
2022/06/04 03:19:02;;;;;;;2.20;2.00;;;16.20;99.90;;;;;;5053165;28;20499;-44
2022/06/04 03:21:29;;;;;;;5.97;2.17;;;16.30;99.90;;;;;;5053134;28;20445;-45
2022/06/04 03:23:56;;;;;;;4.93;1.80;;;16.30;99.90;;;;;;5053279;28;20456;-46
2022/06/04 03:26:23;;;;;;;3.37;1.90;;;16.40;99.90;;;;;;5053437;28;20500;-47
2022/06/04 03:28:50;;;;;;;2.60;1.47;;;16.40;99.90;;;;;;5053065;28;20440;-49
2022/06/04 03:31:18;;;;;;;4.10;2.00;;;16.40;99.90;;;;;;5053089;28;20515;-45
2022/06/04 03:33:45;;;;;;;3.70;2.07;;;16.40;99.90;;;;;;5053026;28;20445;-45
2022/06/04 03:36:13;;;;;;;1.87;1.50;;;16.40;99.90;;;;;;5053010;28;20461;-46
2022/06/04 03:38:40;;;;;;;4.50;2.00;;;16.40;99.90;;;;;;5053042;28;20446;-44
2022/06/04 03:41:07;;;;;;;2.53;1.80;;;16.40;99.90;;;;;;5052863;28;20456;-44
2022/06/04 03:43:34;;;;;;;2.40;1.90;;;16.40;99.90;;;;;;5053092;28;20519;-49
2022/06/04 03:46:01;;;;;;;2.73;1.80;;;16.40;99.90;;;;;;5052603;28;21059;-44
2022/06/04 03:48:29;;;;;;;2.10;1.40;;;16.40;99.90;;;;;;5052920;28;20499;-47
2022/06/04 03:50:56;;;;;;;2.80;1.53;;;16.40;99.90;;;;;;5052799;28;20445;-45
2022/06/04 03:53:23;;;;;;;2.80;1.80;;;16.40;99.90;;;;;;5053034;28;20449;-45
2022/06/04 03:55:50;;;;;;;2.00;1.50;;;16.40;99.90;;;;;;5052671;28;20517;-49
2022/06/04 03:58:17;;;;;;;1.90;1.63;;;16.30;99.90;;;;;;5052350;28;20945;-45
2022/06/04 04:00:45;;;;;;;4.03;1.70;;;16.20;99.90;;;;;;5052366;28;20520;-47
2022/06/04 04:03:15;;;;;;;3.43;2.23;;;16.10;99.90;;;;;;5052854;28;20445;-45
2022/06/04 04:05:48;;;;;;;2.90;1.70;;;16.00;99.90;;;;;;5052431;28;20989;-44
2022/06/04 04:08:16;;;;;;;2.03;1.83;;;16.10;99.90;;;;;;5052210;28;20438;-45
2022/06/04 04:10:44;;;;;;;3.00;2.27;;;16.00;99.90;;;;;;5052019;28;20437;-46
2022/06/04 04:13:13;;;;;;;2.43;2.03;;;16.10;99.90;;;;;;5052370;28;20491;-45
2022/06/04 04:15:40;;;;;;;3.57;1.90;;;16.20;99.90;;;;;;5052523;28;20497;-45
2022/06/04 04:18:07;;;;;;;2.03;1.67;;;16.20;99.90;;;;;;5052307;28;20441;-50
2022/06/04 04:20:37;;;;;;;2.10;1.90;;;16.30;99.90;;;;;;5052045;28;20995;-45
2022/06/04 04:23:07;;;;;;;4.70;3.40;;;16.30;99.90;;;;;;5052234;28;20866;-46
2022/06/04 04:25:35;;;;;;;2.40;1.33;;;16.30;99.90;;;;;;5052145;28;20457;-45
2022/06/04 04:28:03;;;;;;;5.03;3.13;;;16.30;99.90;;;;;;5052473;28;20580;-45
2022/06/04 04:30:32;;;;;;;1.93;1.50;;;16.30;99.90;;;;;;5051362;28;20946;-45
2022/06/04 04:33:00;;;;;;;1.87;1.50;;;16.20;99.90;;;;;;5052151;28;20526;-48
2022/06/04 04:35:30;;;;;;;3.37;2.90;;;16.20;99.90;;;;;;5051701;28;20441;-45
2022/06/04 04:37:57;;;;;;;3.60;2.00;;;16.20;99.90;;;;;;5051570;28;20980;-46
2022/06/04 04:40:28;;;;;;;2.13;1.50;;;16.20;99.90;;;;;;5051538;28;20457;-44
2022/06/04 04:42:55;;;;;;;1.60;1.30;;;16.30;99.90;;;;;;5051933;28;20530;-50
2022/06/04 04:45:24;;;;;;;3.43;1.70;;;16.30;99.90;;;;;;5051496;28;20942;-44
2022/06/04 04:47:54;;;;;;;4.40;1.63;;;16.20;99.90;;;;;;5051790;28;20508;-46
2022/06/04 04:50:23;;;;;;;1.80;1.30;;;16.30;99.90;;;;;;5051532;28;20445;-45
2022/06/04 04:52:51;;;;;;;2.00;1.60;;;16.30;99.90;;;;;;5051797;28;20449;-45
2022/06/04 04:55:19;;;;;;;4.17;1.73;;;16.20;99.90;;;;;;5051466;28;20442;-45
2022/06/04 04:57:47;;;;;;;4.47;2.47;;;16.30;99.90;;;;;;5051562;28;20473;-48
2022/06/04 05:00:16;;;;;;;4.10;3.10;;;16.30;99.90;;;;;;5051099;28;20465;-46
2022/06/04 05:02:44;;;;;;;5.30;2.63;;;16.30;99.90;;;;;;5050937;28;20449;-45
2022/06/04 05:05:12;;;;;;;3.60;2.37;;;16.20;99.90;;;;;;5051654;28;20950;-45
2022/06/04 05:07:39;;;;;;;4.30;2.33;;;15.90;99.90;;;;;;5051355;28;21012;-45
2022/06/04 05:10:08;;;;;;;4.10;2.47;;;15.90;99.90;;;;;;5051252;28;20508;-49
2022/06/04 05:12:35;;;;;;;2.67;2.03;;;16.00;99.90;;;;;;5051588;28;20507;-46
2022/06/04 05:15:04;;;;;;;4.23;2.40;;;16.10;99.90;;;;;;5051169;28;20934;-45
2022/06/04 05:17:31;;;;;;;3.43;2.17;;;16.10;99.90;;;;;;5051238;28;20540;-45
2022/06/04 05:19:58;;;;;;;2.40;2.00;;;16.10;99.90;;;;;;5051314;28;20451;-44
2022/06/04 05:22:25;;;;;;;4.13;2.13;;;16.20;99.90;;;;;;5051407;28;20501;-46
2022/06/04 05:24:52;;;;;;;5.10;2.00;;;16.20;99.90;;;;;;5051301;28;20445;-44
2022/06/04 05:27:19;;;;;;;3.00;2.20;;;16.20;99.90;;;;;;5051016;28;20993;-44
2022/06/04 05:29:46;;;;;;;3.00;1.90;;;16.10;99.90;;;;;;5050440;28;20446;-45
2022/06/04 05:32:14;;;;;;;6.07;2.30;;;16.20;99.90;;;;;;5051342;28;20507;-48
2022/06/04 05:34:41;;;;;;;2.47;1.97;;;16.20;99.90;;;;;;5051093;28;20870;-44
2022/06/04 05:37:09;;;;;;;4.40;1.70;;;16.30;99.90;;;;;;5050719;28;20496;-47
2022/06/04 05:39:36;;;;;;;3.73;1.67;;;16.30;99.90;;;;;;5051003;28;20446;-45
2022/06/04 05:42:04;;;;;;;4.00;2.10;;;16.30;99.90;;;;;;5051151;28;20477;-44
2022/06/04 05:44:31;;;;;;;2.33;2.00;;;16.30;99.90;;;;;;5051157;28;20480;-45
2022/06/04 05:46:58;;;;;;;8.50;2.80;;;16.20;99.90;;;;;;5050782;28;20977;-45
2022/06/04 05:49:26;;;;;;;2.23;1.80;;;15.80;99.90;;;;;;5050544;28;20930;-45
2022/06/04 05:51:53;;;;;;;3.37;1.93;;;15.90;99.90;;;;;;5050868;28;20999;-45
2022/06/04 05:54:21;;;;;;;3.90;2.07;;;15.90;99.90;;;;;;5050804;28;20816;-45
2022/06/04 05:56:50;;;;;;;3.20;1.90;;;16.10;99.90;;;;;;5050390;28;20826;-44
2022/06/04 05:59:20;;;;;;;3.00;1.90;;;16.10;99.90;;;;;;5050770;28;20445;-45
2022/06/04 06:01:48;;;;;;;2.50;1.90;;;16.20;99.90;;;;;;5050805;28;20441;-45
2022/06/04 06:04:17;;;;;;;3.00;2.03;;;16.50;99.90;;;;;;5050622;28;20442;-45
2022/06/04 06:06:48;;;;;;;3.97;1.67;;;17.40;99.90;;;;;;5050518;28;20476;-46
2022/06/04 06:09:16;;;;;;;3.00;2.27;;;18.40;99.90;;;;;;5050908;28;20473;-45
2022/06/04 06:11:44;;;;;;;3.03;1.80;;;19.30;99.90;;;;;;5050829;28;20523;-45
2022/06/04 06:14:12;;;;;;;5.73;2.20;;;20.30;99.90;;;;;;5050948;28;20441;-45
2022/06/04 06:16:43;;;;;;;4.37;2.27;;;21.10;99.90;;;;;;5054835;28;20458;-45
2022/06/04 06:19:10;;;;;;;4.20;2.10;;;21.40;99.90;;;;;;5054150;28;20449;-45
2022/06/04 06:21:38;;;;;;;2.50;2.10;;;21.50;99.90;;;;;;5054389;28;20507;-47
2022/06/04 06:24:09;;;;;;;3.07;2.33;;;21.50;99.90;;;;;;5054478;28;20457;-50
2022/06/04 06:26:43;;;;;;;3.00;1.97;;;21.40;99.90;;;;;;5054433;28;20491;-46
2022/06/04 06:29:10;;;;;;;4.00;1.80;;;21.20;99.90;;;;;;5054255;28;20445;-45
2022/06/04 06:31:37;;;;;;;2.50;2.00;;;21.00;99.90;;;;;;5053717;28;20491;-45
2022/06/04 06:34:04;;;;;;;2.53;1.50;;;20.90;99.90;;;;;;5054014;28;20531;-46
2022/06/04 06:36:31;;;;;;;3.30;1.97;;;20.70;99.90;;;;;;5054285;28;20469;-46
2022/06/04 06:38:58;;;;;;;2.50;2.07;;;20.50;99.90;;;;;;5054236;28;20507;-46
2022/06/04 06:41:27;;;;;;;2.43;2.00;;;20.10;99.90;;;;;;5053990;28;20476;-45
2022/06/04 06:43:54;;;;;;;3.13;1.80;;;19.70;99.90;;;;;;5054188;28;20441;-50
2022/06/04 06:46:23;;;;;;;2.00;1.80;;;19.50;99.90;;;;;;5053708;28;20473;-46
2022/06/04 06:48:52;;;;;;;2.73;1.37;;;19.40;99.90;;;;;;5053784;28;20526;-48
2022/06/04 06:51:22;;;;;;;3.60;1.60;;;19.30;99.90;;;;;;5054029;28;20472;-45
2022/06/04 06:53:49;;;;;;;4.07;2.27;;;19.20;99.90;;;;;;5053917;28;20441;-48
2022/06/04 06:56:18;;;;;;;1.60;1.40;;;19.20;99.90;;;;;;5053746;28;20457;-47
2022/06/04 06:58:47;;;;;;;2.80;2.30;;;19.20;99.90;;;;;;5053190;28;20441;-49
2022/06/04 07:01:15;;;;;;;4.30;2.30;;;19.30;99.90;;;;;;5053408;28;20481;-46
2022/06/04 07:03:43;;;;;;;3.13;1.87;;;19.40;99.90;;;;;;5053808;28;20494;-45
2022/06/04 07:06:13;;;;;;;3.63;2.17;;;19.30;99.90;;;;;;5053569;28;20497;-46
2022/06/04 07:08:43;;;;;;;6.47;2.97;;;19.30;99.90;;;;;;5053470;28;20485;-43
2022/06/04 07:11:10;;;;;;;3.83;2.43;;;19.10;99.90;;;;;;5053543;28;20453;-45
2022/06/04 07:13:37;;;;;;;3.40;1.90;;;18.90;99.90;;;;;;5053460;28;20445;-45
2022/06/04 07:16:05;;;;;;;4.40;2.40;;;18.70;99.90;;;;;;5053109;28;20493;-48
2022/06/04 07:18:32;;;;;;;3.87;2.03;;;18.90;99.90;;;;;;5053252;28;20503;-46
2022/06/04 07:20:59;;;;;;;3.80;2.60;;;19.10;99.90;;;;;;5053116;28;20528;-46
2022/06/04 07:23:26;;;;;;;2.37;1.93;;;19.40;99.90;;;;;;5053341;28;20507;-52
2022/06/04 07:25:54;;;;;;;2.93;2.20;;;19.70;99.90;;;;;;5053362;28;20465;-45
2022/06/04 07:28:21;;;;;;;3.53;2.10;;;19.90;99.90;;;;;;5053168;28;21013;-50
2022/06/04 07:30:47;;;;;;;2.47;2.20;;;20.20;99.90;;;;;;5052645;28;20480;-46
2022/06/04 07:33:16;;;;;;;3.23;2.10;;;20.60;99.90;;;;;;5052931;28;20914;-45
2022/06/04 07:35:47;;;;;;;3.77;2.40;;;21.00;99.90;;;;;;5053051;28;20453;-52
2022/06/04 07:38:14;;;;;;;5.10;2.17;;;21.60;99.90;;;;;;5052877;28;20441;-47
2022/06/04 07:40:41;;;;;;;3.30;1.80;;;21.70;99.90;;;;;;5052680;28;20904;-45
2022/06/04 07:43:08;;;;;;;2.50;2.00;;;21.70;99.90;;;;;;5052903;28;20473;-48
2022/06/04 07:45:35;;;;;;;3.60;2.20;;;21.90;99.90;;;;;;5052792;28;20549;-45
2022/06/04 07:48:02;;;;;;;4.03;2.10;;;22.00;99.90;;;;;;5128174;22;20543;-45
2022/06/04 07:50:31;;;;;;;4.23;2.50;;;22.10;99.90;;;;;;5072027;28;20455;-45
2022/06/04 07:52:58;;;;;;;3.57;2.40;;;22.10;99.90;;;;;;5073142;28;20498;-45
2022/06/04 07:55:26;;;;;;;4.30;2.80;;;22.20;99.90;;;;;;5072909;28;20471;-45
2022/06/04 07:57:53;;;;;;;3.00;2.17;;;22.30;99.90;;;;;;5072372;28;20557;-44
2022/06/04 08:00:22;;;;;;;4.13;2.37;;;22.20;99.90;;;;;;5072558;28;20436;-45
2022/06/04 08:02:49;;;;;;;3.90;3.40;;;22.20;99.90;;;;;;5072491;28;20472;-46
2022/06/04 08:05:16;;;;;;;2.90;2.60;;;22.10;99.90;;;;;;5072759;28;20517;-45
2022/06/04 08:07:45;;;;;;;4.00;2.77;;;21.90;99.90;;;;;;5072554;28;20537;-45
2022/06/04 08:10:13;;;;;;;8.50;7.60;;;21.80;99.90;;;;;;5072386;28;20476;-45
2022/06/04 08:12:42;;;;;;;3.30;2.40;;;21.60;99.90;;;;;;5072375;28;20818;-45
2022/06/04 08:15:10;;;;;;;2.87;2.13;;;21.80;99.90;;;;;;5072208;28;20444;-44
2022/06/04 08:17:37;;;;;;;4.53;3.47;;;22.10;99.90;;;;;;5071988;28;20461;-45
2022/06/04 08:20:04;;;;;;;3.30;2.60;;;22.40;99.90;;;;;;5072116;28;20528;-45
2022/06/04 08:22:31;;;;;;;3.50;2.27;;;22.60;99.90;;;;;;5072282;28;20918;-44
2022/06/04 08:25:00;;;;;;;3.90;2.23;;;22.70;99.90;;;;;;5071874;28;20445;-44
2022/06/04 08:27:27;;;;;;;3.57;2.40;;;22.60;99.90;;;;;;5072040;28;21113;-44
2022/06/04 08:29:54;;;;;;;3.87;2.73;;;22.50;99.90;;;;;;5071332;28;20449;-44
2022/06/04 08:32:21;;;;;;;5.30;3.23;;;22.50;99.90;;;;;;5071932;28;20809;-45
2022/06/04 08:34:48;;;;;;;4.70;2.40;;;22.40;99.90;;;;;;5072052;28;20441;-45
2022/06/04 08:37:16;;;;;;;3.83;2.70;;;22.40;99.90;;;;;;5071039;28;20563;-47
2022/06/04 08:39:43;;;;;;;4.20;3.10;;;22.40;99.90;;;;;;5071847;28;20479;-45
2022/06/04 08:42:28;;;;;;;4.70;3.50;;;22.60;99.90;;;;;;5071403;28;20451;-45
2022/06/04 08:45:00;;;;;;;4.00;2.47;;;22.60;99.90;;;;;;5071619;28;20497;-45
2022/06/04 08:47:33;;;;;;;4.63;2.43;;;22.50;99.90;;;;;;5071599;28;20491;-45
2022/06/04 08:50:08;;;;;;;3.70;2.83;;;22.30;99.90;;;;;;5071601;28;20448;-45
2022/06/04 08:52:39;;;;;;;4.17;2.80;;;22.20;99.90;;;;;;5071462;28;20444;-44
2022/06/04 08:58:12;;;;;;;3.63;3.20;;;22.30;99.90;;;;;;5048334;28;20437;-45
2022/06/04 09:00:44;;;;;;;3.10;2.40;;;22.20;99.90;;;;;;5071117;28;20484;-45
2022/06/04 09:03:14;;;;;;;2.90;2.40;;;22.10;99.90;;;;;;5071733;28;20440;-45
2022/06/04 09:06:02;;;;;;;3.07;2.13;;;22.10;99.90;;;;;;5071933;28;20445;-45
2022/06/04 09:08:39;;;;;;;3.97;2.20;;;22.10;99.90;;;;;;5071598;28;20892;-45
2022/06/04 09:11:11;;;;;;;5.67;2.20;;;22.10;99.90;;;;;;5071361;28;20523;-44
2022/06/04 09:13:45;;;;;;;4.90;2.60;;;22.30;99.90;;;;;;5071577;28;20467;-45
2022/06/04 09:16:25;;;;;;;3.90;2.13;;;22.40;99.90;;;;;;5071192;28;20445;-45
2022/06/04 09:18:58;;;;;;;3.17;2.47;;;22.50;99.90;;;;;;5071254;28;20506;-44
2022/06/04 09:21:31;;;;;;;3.07;2.23;;;22.50;99.90;;;;;;5071346;28;20448;-45
2022/06/04 09:23:58;;;;;;;5.33;2.90;;;22.60;99.90;;;;;;5071488;28;20444;-45
2022/06/04 09:26:33;;;;;;;3.57;2.50;;;22.80;99.90;;;;;;5071196;28;20468;-45
2022/06/04 09:29:17;;;;;;;4.37;2.73;;;22.90;99.90;;;;;;5070606;28;20567;-45
2022/06/04 09:31:52;;;;;;;2.87;2.57;;;23.10;99.90;;;;;;5070606;28;20479;-45
2022/06/04 09:34:24;;;;;;;2.73;2.40;;;23.00;99.90;;;;;;5071090;28;20471;-45
2022/06/04 09:36:51;;;;;;;5.53;2.90;;;23.00;99.90;;;;;;5071303;28;20524;-45
2022/06/04 09:39:24;;;;;;;4.10;2.97;;;23.10;99.90;;;;;;5070973;28;20436;-45
2022/06/04 09:41:53;;;;;;;3.53;2.10;;;23.40;99.90;;;;;;5070448;28;20759;-45
2022/06/04 09:44:22;;;;;;;4.43;2.43;;;23.60;99.90;;;;;;5071240;28;20440;-45
2022/06/04 09:46:55;;;;;;;5.33;2.20;;;23.50;99.90;;;;;;5070445;28;20988;-45
2022/06/04 09:49:35;;;;;;;3.77;2.57;;;23.50;99.90;;;;;;5072230;28;20475;-45
2022/06/04 09:52:18;;;;;;;4.07;2.50;;;23.60;99.90;;;;;;5074604;28;20436;-45
2022/06/04 09:54:53;;;;;;;2.70;2.30;;;23.50;99.90;;;;;;5075326;28;20472;-45
2022/06/04 09:57:27;;;;;;;5.83;2.47;;;23.50;99.90;;;;;;5074960;28;20459;-45
2022/06/04 09:59:57;;;;;;;4.73;2.60;;;23.50;99.90;;;;;;5074199;28;20472;-45
2022/06/04 10:02:25;;;;;;;4.40;2.50;;;23.50;99.90;;;;;;5074686;28;20472;-45
2022/06/04 10:05:02;;;;;;;3.10;2.47;;;23.50;99.90;;;;;;5074495;28;20515;-45
2022/06/04 10:07:33;;;;;;;3.73;2.40;;;23.50;99.90;;;;;;5074752;28;20471;-45
2022/06/04 10:10:04;;;;;;;3.60;2.40;;;23.50;99.90;;;;;;5074568;28;20444;-45
2022/06/04 10:15:26;;;;;;;3.50;2.33;;;23.40;99.90;;;;;;5074563;28;20970;-45
2022/06/04 10:18:06;;;;;;;3.60;2.30;;;23.40;99.90;;;;;;5074554;28;20517;-45
2022/06/04 10:20:34;;;;;;;5.23;2.67;;;23.40;99.90;;;;;;5074260;28;20529;-45
2022/06/04 10:23:01;;;;;;;3.43;2.33;;;23.50;99.90;;;;;;5074514;28;20446;-45
2022/06/04 10:25:39;;;;;;;3.23;2.10;;;23.40;99.90;;;;;;5071759;28;20521;-45
2022/06/04 10:28:17;;;;;;;4.10;2.70;;;23.50;99.90;;;;;;5072426;28;20533;-45
2022/06/04 10:30:52;;;;;;;3.80;3.10;;;23.60;99.90;;;;;;5073438;28;20451;-45
2022/06/04 10:33:29;;;;;;;3.90;2.60;;;23.80;99.90;;;;;;5074091;28;20475;-45
2022/06/04 10:36:02;;;;;;;3.83;2.47;;;23.80;99.90;;;;;;5073784;28;20482;-45
2022/06/04 10:38:43;;;;;;;2.63;2.43;;;23.80;99.90;;;;;;5074002;28;20582;-45
2022/06/04 10:41:16;;;;;;;4.80;2.70;;;23.80;99.90;;;;;;5073600;28;20959;-45
2022/06/04 10:43:58;;;;;;;5.10;2.63;;;24.00;99.90;;;;;;5073272;28;20468;-45
2022/06/04 10:46:33;;;;;;;3.30;2.47;;;24.10;99.90;;;;;;5069118;28;20562;-46
2022/06/04 10:49:13;;;;;;;3.20;2.80;;;24.10;99.90;;;;;;5071241;28;20561;-45
2022/06/04 10:51:51;;;;;;;3.87;3.17;;;24.10;99.90;;;;;;5081565;28;20520;-45
2022/06/04 10:54:26;;;;;;;4.37;2.70;;;24.10;99.90;;;;;;5072895;28;20444;-45
2022/06/04 10:56:58;;;;;;;6.50;5.40;;;24.10;99.90;;;;;;5073353;28;20517;-45
2022/06/04 10:59:32;;;;;;;5.60;4.07;;;24.20;99.90;;;;;;5073217;28;20445;-45
2022/06/04 11:02:12;;;;;;;4.70;3.27;;;24.40;99.90;;;;;;5077103;28;20455;-45
2022/06/04 11:04:45;;;;;;;7.23;2.70;;;24.50;99.90;;;;;;5083044;28;20444;-45
2022/06/04 11:07:35;;;;;;;7.80;4.13;;;24.70;99.90;;;;;;5091844;28;21030;-44
2022/06/04 11:10:06;;;;;;;4.27;2.87;;;24.90;99.90;;;;;;5091184;28;20482;-45
2022/06/04 11:12:41;;;;;;;4.73;2.90;;;25.00;99.90;;;;;;5091441;28;20442;-45
2022/06/04 11:15:13;;;;;;;3.87;2.33;;;25.00;99.90;;;;;;5090727;28;20446;-45
2022/06/04 11:17:47;;;;;;;5.07;2.47;;;25.00;99.90;;;;;;5091349;28;20537;-45
2022/06/04 11:20:18;;;;;;;5.23;2.77;;;25.10;99.90;;;;;;5081307;28;20854;-45
2022/06/04 11:22:56;;;;;;;5.53;2.70;;;25.20;99.90;;;;;;5072019;28;20490;-45
2022/06/04 11:25:27;;;;;;;57.63;11.93;;;25.20;99.90;;;;;;5072508;28;20483;-45
2022/06/04 11:27:58;;;;;;;5.83;2.57;;;25.20;99.90;;;;;;5072321;28;20464;-45
2022/06/04 11:30:46;;;;;;;8.37;2.90;;;25.20;99.90;;;;;;5071177;28;20805;-45
2022/06/04 11:33:26;;;;;;;10.53;4.80;;;25.30;99.90;;;;;;5072183;28;20437;-45
2022/06/04 11:36:01;;;;;;;4.63;3.13;;;25.30;99.90;;;;;;5073489;28;20440;-45
2022/06/04 11:38:52;;;;;;;5.93;3.97;;;25.30;99.90;;;;;;5072725;28;20428;-45
2022/06/04 11:41:29;;;;;;;3.10;2.60;;;25.30;99.90;;;;;;5052889;28;20437;-45
2022/06/04 11:44:12;;;;;;;4.90;3.23;;;25.40;99.90;;;;;;5069610;28;20788;-45
2022/06/04 11:46:52;;;;;;;3.37;3.07;;;25.40;99.90;;;;;;5072551;28;20472;-45
2022/06/04 11:49:32;;;;;;;9.07;3.57;;;25.40;99.90;;;;;;5071864;28;20568;-45
2022/06/04 11:52:19;;;;;;;3.07;2.50;;;25.30;99.90;;;;;;5072926;28;20452;-45
2022/06/04 11:55:21;;;;;;;5.47;3.33;;;25.40;99.90;;;;;;5073173;28;20444;-45
2022/06/04 11:58:09;;;;;;;5.87;3.13;;;25.50;99.90;;;;;;5056800;28;20529;-44
2022/06/04 12:00:39;;;;;;;5.03;3.30;;;25.50;99.90;;;;;;5072568;28;20440;-45
2022/06/04 12:03:14;;;;;;;6.03;3.07;;;25.60;99.90;;;;;;5072671;28;20440;-45
2022/06/04 12:05:49;;;;;;;4.90;3.40;;;25.60;99.90;;;;;;5072505;28;20925;-45
2022/06/04 12:08:19;;;;;;;3.80;2.77;;;25.70;99.90;;;;;;5071415;28;20462;-45
2022/06/04 12:10:56;;;;;;;5.67;4.77;;;25.70;99.90;;;;;;5080493;28;20462;-45
2022/06/04 12:13:30;;;;;;;5.77;3.37;;;25.70;99.90;;;;;;5070959;28;20441;-45
2022/06/04 12:16:03;;;;;;;3.83;2.77;;;25.60;99.90;;;;;;5071927;28;20994;-45
2022/06/04 12:18:34;;;;;;;6.73;2.97;;;25.70;99.90;;;;;;5052376;28;20446;-45
2022/06/04 12:26:38;;;;;;;3.53;2.87;;;25.90;99.90;;;;;;5071470;28;20497;-45
2022/06/04 12:29:24;;;;;;;3.10;2.13;;;25.90;99.90;;;;;;5071655;28;20478;-45
2022/06/04 12:31:59;;;;;;;5.37;3.53;;;26.00;99.90;;;;;;5071403;28;20728;-45
2022/06/04 12:34:30;;;;;;;10.37;3.87;;;26.10;99.90;;;;;;5071867;28;20432;-45
2022/06/04 12:36:59;;;;;;;3.30;3.00;;;26.20;99.90;;;;;;5071690;28;20499;-45
2022/06/04 12:39:30;;;;;;;3.60;2.70;;;26.30;99.90;;;;;;5071987;28;20947;-45
2022/06/04 12:41:59;;;;;;;2.90;2.40;;;26.30;99.90;;;;;;5071975;28;20437;-45
2022/06/04 12:44:30;;;;;;;3.10;2.20;;;26.40;99.90;;;;;;5071831;28;20447;-45
2022/06/04 12:47:10;;;;;;;3.70;2.33;;;26.40;99.90;;;;;;5071287;28;20525;-45
2022/06/04 12:49:46;;;;;;;3.70;2.27;;;26.40;99.90;;;;;;5071232;28;20507;-45
2022/06/04 12:52:40;;;;;;;3.50;2.13;;;26.30;99.90;;;;;;5071973;28;20531;-45
2022/06/04 12:55:16;;;;;;;3.70;2.20;;;26.30;99.90;;;;;;5068690;28;20451;-46
2022/06/04 12:57:51;;;;;;;3.53;2.47;;;26.30;99.90;;;;;;5071658;28;20452;-45
2022/06/04 13:00:37;;;;;;;3.33;2.37;;;26.30;99.90;;;;;;5071705;28;20494;-45
2022/06/04 13:03:36;;;;;;;4.30;2.67;;;26.20;99.90;;;;;;5071403;28;20443;-45
2022/06/04 13:06:24;;;;;;;8.27;2.80;;;26.20;99.90;;;;;;5071063;28;20472;-45
2022/06/04 13:09:01;;;;;;;6.50;3.03;;;26.20;99.90;;;;;;5070743;28;20842;-45
2022/06/04 13:11:43;;;;;;;5.70;2.47;;;26.10;99.90;;;;;;5070963;28;20532;-45
2022/06/04 13:14:21;;;;;;;4.53;2.90;;;26.10;99.90;;;;;;5071287;28;20440;-45
2022/06/04 13:16:51;;;;;;;6.37;2.20;;;26.20;99.90;;;;;;5070148;28;20463;-45
2022/06/04 13:19:47;;;;;;;2.80;2.47;;;26.20;99.90;;;;;;5070231;28;20518;-45
2022/06/04 13:22:20;;;;;;;6.60;2.07;;;26.20;99.90;;;;;;5053044;28;20452;-45
2022/06/04 13:24:49;;;;;;;6.93;2.77;;;26.20;99.90;;;;;;5069586;28;20532;-45
2022/06/04 13:27:22;;;;;;;2.83;1.90;;;26.10;99.90;;;;;;5069788;28;20496;-45
2022/06/04 13:29:56;;;;;;;3.20;2.33;;;26.10;99.90;;;;;;5069259;28;20484;-45